This is the latest recevied weather packets stored in our database for station/object EA1PVC-10. If no packets are shown the sender has not sent any weather packets the latest 10 day(s).
| Time | Temp. | Humidity | Pressure | Rain* | Wind** | Luminosity | Snow |
|---|---|---|---|---|---|---|---|
| 1777538346 | 13.33° C | 82% | 923.4 hPa | - | - | - | - |
| 1777537446 | 7.22° C | 85% | 916.5 hPa | - | - | - | - |
| 1777536534 | 11.67° C | 86% | 923.2 hPa | - | - | - | - |
| 1777535634 | 11.67° C | 89% | 922.9 hPa | - | - | - | - |
| 1777534734 | 11.67° C | 90% | 922.9 hPa | - | - | - | - |
| 1777533834 | 11.11° C | 90% | 922.7 hPa | - | - | - | - |
| 1777532034 | 10.56° C | 95% | 922.5 hPa | - | - | - | - |
| 1777531134 | 10.56° C | 97% | 922.4 hPa | - | - | - | - |
| 1777530234 | 10.56° C | 98% | 922.3 hPa | - | - | - | - |
| 1777529334 | 10.56° C | 100% | 922.2 hPa | - | - | - | - |
| 1777528434 | 10° C | 100% | 921.9 hPa | - | - | - | - |
| 1777527534 | 10° C | 100% | 921.8 hPa | - | - | - | - |
| 1777526634 | 5.56° C | 100% | 914.7 hPa | - | - | - | - |
| 1777525722 | 10.56° C | 100% | 921.5 hPa | - | - | - | - |
| 1777524822 | 10.56° C | 100% | 922.8 hPa | - | - | - | - |
| 1777523922 | 10.56° C | 100% | 921.4 hPa | - | - | - | - |
| 1777523022 | 10.56° C | 100% | 921.3 hPa | - | - | - | - |
| 1777522122 | 10.56° C | 100% | 921.3 hPa | - | - | - | - |
| 1777521222 | 10° C | 100% | 921.2 hPa | - | - | - | - |
| 1777520322 | 10° C | 100% | 921.3 hPa | - | - | - | - |
| 1777519422 | 10° C | 100% | 921.1 hPa | - | - | - | - |
| 1777518522 | 10° C | 100% | 921 hPa | - | - | - | - |
| 1777517621 | 10° C | 100% | 920.9 hPa | - | - | - | - |
| 1777516722 | 10° C | 100% | 920.8 hPa | - | - | - | - |
| 1777514910 | 10° C | 100% | 920.7 hPa | - | - | - | - |
* Rain since midnight (hover to see other rain measurements)
** Current wind speed in m/s (hover to see current wind gust speed)